Weather at General Francisco J. Mujica International Airport

Public forecast

Using degrees Celsius for public forecast. Weather courtesy of forecast.io.

Current aviation weather report (METAR) for General Francisco J. Mujica International Airport

Retrieved 2021/04/12 15:40 UTC (53 minutes ago):

MMMM 121540Z 00000KT 7SM SKC 22/03 A3014 RMK HZY

Aviation forecast (TAF) for General Francisco J. Mujica International Airport

Forecast is more than 12 hours old.

Retrieved 2021-04-12 00:09 UTC (16 hours ago):

TAF MMMM 112202Z 1200/1306 18005KT 6SM HZ SCT030 FM121800 18010KT P6SM SCT030 FM130200 18005KT P6SM SCT030